Time;durP1;ratioP1;P1;durP2;ratioP2;P2;SDS_P1;SDS_P2;PMS_P1;PMS_P2;Temp;Humidity;BMP_temperature;BMP_pressure;BME280_temperature;BME280_humidity;BME280_pressure;Samples;Min_cycle;Max_cycle;Signal;HPM_P1;HPM_P2
2023/06/10 03:14:41;;;;;;;7.95;6.32;;;;;;;20.13;68.86;94224.78;4236343;27;20394;-57
2023/06/10 03:16:45;;;;;;;7.32;6.38;;;;;;;20.17;68.71;94223.28;4229371;28;20056;-60
2023/06/10 03:18:49;;;;;;;8.82;6.97;;;;;;;20.12;68.80;94226.63;4222113;28;20121;-58
2023/06/10 03:20:51;;;;;;;;;;;;;;;19.79;69.39;94235.13;4219505;28;20048;-58
2023/06/10 03:22:53;;;;;;;8.95;5.90;;;;;;;19.18;71.08;94237.72;4220491;28;19928;-59
2023/06/10 03:27:16;;;;;;;10.05;6.15;;;;;;;18.35;74.05;94248.81;4221148;28;20518;-58
2023/06/10 03:29:18;;;;;;;9.55;7.63;;;;;;;18.18;76.01;94251.22;4232028;28;20482;-56
2023/06/10 03:31:19;;;;;;;12.90;9.32;;;;;;;17.96;78.06;94253.41;4229962;27;20043;-59
2023/06/10 03:33:21;;;;;;;14.32;9.40;;;;;;;17.98;78.49;94252.19;4227304;27;20063;-57
2023/06/10 03:35:23;;;;;;;11.45;9.25;;;;;;;17.99;78.79;94253.00;4223966;28;20056;-60
2023/06/10 03:37:25;;;;;;;14.00;9.95;;;;;;;18.13;78.80;94253.69;4224238;28;20093;-57
2023/06/10 03:39:28;;;;;;;11.70;8.70;;;;;;;18.31;78.25;94252.94;4222143;28;20390;-59
2023/06/10 03:41:31;;;;;;;;;;;;;;;18.48;77.48;94261.97;4234713;28;20101;-59
2023/06/10 03:43:33;;;;;;;13.43;9.20;;;;;;;18.53;76.95;94253.34;4228770;27;19963;-59
2023/06/10 03:45:36;;;;;;;10.32;8.85;;;;;;;18.62;76.82;94252.03;4223563;28;20058;-59
2023/06/10 03:47:40;;;;;;;13.27;9.55;;;;;;;18.61;76.39;94250.41;4224545;28;20366;-54
2023/06/10 03:49:42;;;;;;;11.80;9.68;;;;;;;18.48;76.72;94255.84;4222911;28;20505;-58
2023/06/10 03:51:44;;;;;;;10.00;9.00;;;;;;;18.30;77.16;94252.09;4224651;28;20059;-56
2023/06/10 03:53:46;;;;;;;15.50;9.75;;;;;;;18.16;77.81;94245.31;4224404;28;20058;-59
2023/06/10 03:55:48;;;;;;;12.55;10.10;;;;;;;18.18;78.50;94245.91;4227720;28;20051;-58
2023/06/10 03:57:49;;;;;;;14.55;9.68;;;;;;;18.11;78.27;94248.63;4241145;27;20047;-58
2023/06/10 03:59:51;;;;;;;17.08;9.93;;;;;;;17.94;78.65;94243.03;4235967;27;20047;-58
2023/06/10 04:01:53;;;;;;;12.73;9.60;;;;;;;17.97;79.34;94247.09;4226801;27;20066;-60
2023/06/10 04:03:55;;;;;;;10.57;8.93;;;;;;;18.07;78.81;94246.59;4235275;28;20086;-60
2023/06/10 04:05:56;;;;;;;11.18;9.38;;;;;;;18.21;78.72;94246.28;4232107;28;20047;-59
2023/06/10 04:07:59;;;;;;;12.65;8.95;;;;;;;18.30;77.85;94252.09;4224610;27;20051;-59
2023/06/10 04:10:01;;;;;;;12.88;9.23;;;;;;;18.31;77.61;94245.78;4224520;28;20048;-58
2023/06/10 04:12:05;;;;;;;11.43;9.30;;;;;;;18.31;77.57;94239.69;4225599;28;20524;-59
2023/06/10 04:14:08;;;;;;;13.00;9.38;;;;;;;18.36;77.44;94245.94;4221418;28;20105;-61
2023/06/10 04:16:10;;;;;;;13.13;9.55;;;;;;;18.38;77.92;94248.38;4216326;28;20040;-60
2023/06/10 04:18:12;;;;;;;11.80;8.68;;;;;;;18.47;77.48;94255.03;4212853;28;20047;-59
2023/06/10 04:20:14;;;;;;;12.07;8.45;;;;;;;18.54;77.24;94255.78;4210575;28;20481;-61
2023/06/10 04:22:16;;;;;;;12.43;8.85;;;;;;;18.59;76.65;94263.88;4212879;28;20618;-58
2023/06/10 04:24:18;;;;;;;10.63;8.50;;;;;;;18.40;76.85;94265.69;4212820;28;20047;-59
2023/06/10 04:26:20;;;;;;;11.85;8.35;;;;;;;18.23;77.55;94263.81;4214809;28;20117;-61
2023/06/10 04:30:42;;;;;;;11.18;9.20;;;;;;;18.45;77.65;94258.94;4214412;28;20083;-61
2023/06/10 04:32:43;;;;;;;11.98;8.57;;;;;;;18.58;77.46;94253.50;4213852;28;20064;-59
2023/06/10 04:34:45;;;;;;;13.27;9.48;;;;;;;18.68;76.89;94253.81;4212477;28;20075;-60
2023/06/10 04:36:47;;;;;;;13.73;7.95;;;;;;;18.82;76.87;94255.31;4212727;28;20052;-61
2023/06/10 04:38:51;;;;;;;10.00;8.60;;;;;;;18.95;76.28;94257.03;4211500;28;20639;-62
2023/06/10 04:40:53;;;;;;;10.20;8.13;;;;;;;19.09;76.26;94255.00;4218372;28;20660;-60
2023/06/10 04:42:55;;;;;;;10.30;8.30;;;;;;;19.23;75.71;94261.00;4219909;28;20052;-60
2023/06/10 04:44:57;;;;;;;10.80;8.48;;;;;;;19.36;74.88;94254.66;4212427;28;20060;-60
2023/06/10 04:46:59;;;;;;;12.27;8.85;;;;;;;19.47;74.60;94251.28;4215621;28;20469;-61
2023/06/10 04:49:01;;;;;;;9.73;8.73;;;;;;;19.59;74.23;94252.13;4220483;28;20052;-60
2023/06/10 04:51:02;;;;;;;13.80;8.63;;;;;;;19.69;74.03;94251.56;4212406;28;20109;-60
2023/06/10 04:53:05;;;;;;;13.13;9.55;;;;;;;19.77;73.86;94255.81;4211706;28;20087;-59
2023/06/10 04:55:08;;;;;;;11.13;9.00;;;;;;;19.78;72.74;94250.25;4208896;28;20045;-59
2023/06/10 04:57:11;;;;;;;12.57;8.98;;;;;;;19.81;72.69;94254.28;4204450;28;20131;-61
2023/06/10 04:59:14;;;;;;;12.27;8.93;;;;;;;19.80;72.51;94258.00;4211903;28;20269;-61
2023/06/10 05:01:16;;;;;;;11.98;8.73;;;;;;;19.81;72.35;94259.59;4222456;28;20078;-61
2023/06/10 05:03:17;;;;;;;10.55;9.20;;;;;;;19.87;71.93;94252.59;4216923;28;20474;-60
2023/06/10 05:05:19;;;;;;;11.25;9.00;;;;;;;19.88;71.77;94247.03;4226537;28;20408;-61
2023/06/10 05:07:21;;;;;;;13.65;9.18;;;;;;;19.87;71.72;94244.59;4217052;28;20203;-62
2023/06/10 05:09:22;;;;;;;11.88;9.75;;;;;;;19.92;71.81;94247.38;4226795;28;20043;-60
2023/06/10 05:11:24;;;;;;;9.52;8.50;;;;;;;19.92;71.37;94250.03;4228670;28;20043;-61
2023/06/10 05:13:26;;;;;;;14.38;9.18;;;;;;;19.92;71.56;94256.19;4208513;28;20062;-60
2023/06/10 05:15:27;;;;;;;12.93;8.88;;;;;;;19.94;71.94;94253.28;4212719;28;20043;-60
2023/06/10 05:17:29;;;;;;;17.15;8.73;;;;;;;19.94;71.91;94255.94;4212337;28;20374;-60
2023/06/10 05:19:32;;;;;;;13.85;10.32;;;;;;;19.93;71.97;94257.78;4210907;28;20043;-61
2023/06/10 05:21:33;;;;;;;17.55;9.52;;;;;;;19.85;72.31;94247.47;4211749;28;20047;-59
2023/06/10 05:23:35;;;;;;;10.52;9.27;;;;;;;19.83;72.46;94252.22;4210954;28;20648;-61
2023/06/10 05:25:37;;;;;;;16.40;9.45;;;;;;;19.88;72.62;94248.91;4219310;28;20237;-60
2023/06/10 05:27:40;;;;;;;14.50;9.95;;;;;;;19.95;72.43;94249.59;4214472;28;20094;-61
2023/06/10 05:29:41;;;;;;;17.05;9.93;;;;;;;20.03;72.09;94247.41;4222254;28;20040;-62
2023/06/10 05:31:43;;;;;;;14.70;9.65;;;;;;;20.07;72.00;94249.63;4212763;28;20040;-62
2023/06/10 05:33:45;;;;;;;10.98;9.63;;;;;;;20.08;71.62;94256.56;4210640;28;20048;-62
2023/06/10 05:35:47;;;;;;;16.30;9.93;;;;;;;20.15;71.40;94255.41;4211811;28;20051;-62
2023/06/10 05:37:48;;;;;;;12.77;9.55;;;;;;;20.20;71.20;94249.41;4212007;28;20047;-61
2023/06/10 05:39:50;;;;;;;11.30;9.75;;;;;;;20.26;70.95;94251.13;4221318;28;20131;-62
2023/06/10 05:41:52;;;;;;;13.80;9.90;;;;;;;20.31;70.73;94261.13;4211010;28;20055;-61
2023/06/10 05:43:53;;;;;;;12.77;10.10;;;;;;;20.30;70.55;94254.97;4198917;28;20526;-61
2023/06/10 05:45:55;;;;;;;14.80;9.10;;;;;;;20.27;70.25;94258.09;4211959;28;20483;-60
2023/06/10 05:47:57;;;;;;;11.00;8.45;;;;;;;20.26;70.08;94259.13;4211877;28;20511;-62
2023/06/10 05:49:58;;;;;;;14.45;7.97;;;;;;;20.20;69.91;94260.88;4209680;28;20335;-59
2023/06/10 05:52:00;;;;;;;10.68;7.35;;;;;;;20.26;69.95;94261.78;4211597;28;20428;-57
2023/06/10 05:54:02;;;;;;;10.57;7.90;;;;;;;20.24;69.66;94262.03;4212263;28;20097;-61
2023/06/10 05:56:04;;;;;;;9.00;7.75;;;;;;;20.22;69.42;94268.63;4211652;28;20711;-61
2023/06/10 05:58:06;;;;;;;11.10;7.28;;;;;;;20.22;69.49;94264.09;4210555;28;20057;-59
2023/06/10 06:00:09;;;;;;;13.65;7.40;;;;;;;20.27;68.85;94258.09;4211161;28;20142;-59
2023/06/10 06:02:10;;;;;;;8.03;6.00;;;;;;;20.31;68.27;94263.78;4211911;28;20047;-62
2023/06/10 06:04:12;;;;;;;9.93;6.82;;;;;;;20.34;67.72;94272.09;4209828;28;20292;-62
2023/06/10 06:06:14;;;;;;;9.75;6.25;;;;;;;20.42;67.52;94271.75;4226457;28;20048;-59
2023/06/10 06:08:18;;;;;;;9.73;6.20;;;;;;;20.51;67.49;94274.06;4221617;28;20044;-59
2023/06/10 06:10:20;;;;;;;9.32;6.00;;;;;;;20.59;67.14;94263.13;4208510;28;20040;-61
2023/06/10 06:12:21;;;;;;;12.20;5.95;;;;;;;20.69;66.56;94262.53;4208475;28;20048;-61
2023/06/10 06:14:23;;;;;;;11.02;5.85;;;;;;;20.77;66.06;94260.31;4214411;28;20048;-63
2023/06/10 06:16:25;;;;;;;6.70;5.25;;;;;;;20.88;65.96;94255.22;4211222;28;20579;-60
2023/06/10 06:18:27;;;;;;;10.18;5.60;;;;;;;20.86;65.70;94260.78;4211144;28;20147;-61
2023/06/10 06:20:28;;;;;;;9.88;5.82;;;;;;;20.86;65.81;94266.09;4209786;28;20117;-61
2023/06/10 06:22:30;;;;;;;8.85;6.15;;;;;;;20.84;65.66;94263.69;4211506;28;20054;-60
2023/06/10 06:24:32;;;;;;;11.68;6.60;;;;;;;20.85;65.53;94267.97;4210439;28;20098;-61
2023/06/10 06:26:34;;;;;;;8.93;6.00;;;;;;;20.86;65.45;94268.75;4210951;28;20097;-59
2023/06/10 06:28:36;;;;;;;12.63;5.70;;;;;;;20.90;65.56;94272.56;4210976;28;20090;-60
2023/06/10 06:30:37;;;;;;;9.75;6.35;;;;;;;20.37;66.54;94273.47;4211042;28;20054;-60
2023/06/10 06:32:39;;;;;;;12.20;7.18;;;;;;;19.83;69.05;94273.47;4210708;28;20062;-61
2023/06/10 06:34:41;;;;;;;11.68;7.32;;;;;;;19.71;69.83;94278.78;4209484;28;20044;-59
2023/06/10 06:36:43;;;;;;;10.50;7.45;;;;;;;19.53;70.67;94271.63;4210812;28;20066;-60
2023/06/10 06:38:44;;;;;;;11.07;7.80;;;;;;;19.60;71.28;94274.19;4210614;28;20140;-60
2023/06/10 06:40:46;;;;;;;11.15;7.00;;;;;;;19.26;72.00;94273.81;4212586;28;20044;-59
2023/06/10 06:42:48;;;;;;;14.40;7.78;;;;;;;19.29;71.68;94277.84;4210999;28;20143;-59
2023/06/10 06:44:49;;;;;;;8.80;6.40;;;;;;;19.27;71.85;94270.09;4210902;28;20127;-60
2023/06/10 06:46:51;;;;;;;11.02;7.95;;;;;;;19.29;71.58;94268.03;4210540;28;20312;-60
2023/06/10 06:48:53;;;;;;;12.23;6.65;;;;;;;19.51;71.85;94260.41;4209370;28;20052;-60
2023/06/10 06:50:56;;;;;;;14.57;6.63;;;;;;;19.75;70.23;94261.34;4210167;28;20349;-59
2023/06/10 06:52:57;;;;;;;15.83;7.80;;;;;;;19.84;69.69;94256.50;4211243;28;20051;-59
2023/06/10 06:54:59;;;;;;;9.35;6.10;;;;;;;19.95;69.62;94252.25;4210333;28;20052;-60
2023/06/10 06:57:02;;;;;;;11.15;5.93;;;;;;;20.16;69.02;94261.56;4211019;28;20066;-60
2023/06/10 06:59:04;;;;;;;7.63;5.72;;;;;;;20.40;68.20;94267.72;4210489;28;20044;-61
2023/06/10 07:01:06;;;;;;;10.07;5.30;;;;;;;20.53;67.93;94261.34;4210566;28;20055;-59
2023/06/10 07:03:08;;;;;;;8.05;5.60;;;;;;;20.70;66.65;94254.31;4210920;28;20058;-61
2023/06/10 07:05:10;;;;;;;9.57;5.22;;;;;;;20.82;66.14;94259.63;4203359;28;20393;-59
2023/06/10 07:07:12;;;;;;;11.30;5.30;;;;;;;20.91;65.71;94252.91;4206663;28;20082;-61
2023/06/10 07:09:14;;;;;;;9.45;6.00;;;;;;;20.87;65.21;94257.09;4209982;28;20169;-57
2023/06/10 07:11:17;;;;;;;15.57;7.40;;;;;;;20.71;66.03;94261.25;4208758;28;20091;-60
2023/06/10 07:13:19;;;;;;;9.45;5.90;;;;;;;20.63;66.73;94256.28;4206007;28;20071;-60
2023/06/10 07:15:21;;;;;;;12.32;7.63;;;;;;;20.82;66.37;94246.31;4209386;28;20040;-59
2023/06/10 07:17:22;;;;;;;13.55;9.02;;;;;;;20.98;65.28;94242.13;4210745;28;20052;-60
2023/06/10 07:19:24;;;;;;;9.63;5.90;;;;;;;20.68;65.06;94243.09;4210481;28;20147;-56
2023/06/10 07:21:28;;;;;;;10.70;5.53;;;;;;;20.76;65.56;94245.41;4211877;28;20055;-58
2023/06/10 07:23:30;;;;;;;10.45;5.00;;;;;;;20.75;65.19;94246.44;4210173;28;20072;-62
2023/06/10 07:25:31;;;;;;;7.28;4.95;;;;;;;20.99;64.71;94238.41;4212556;28;20051;-62
2023/06/10 07:27:33;;;;;;;5.97;4.60;;;;;;;21.23;63.48;94233.81;4210310;28;20565;-60
2023/06/10 07:29:35;;;;;;;6.28;4.78;;;;;;;21.41;62.99;94238.19;4212262;28;20577;-58
2023/06/10 07:31:37;;;;;;;16.60;9.57;;;;;;;21.46;61.40;94232.97;4212273;28;20048;-60
2023/06/10 07:33:39;;;;;;;13.55;9.05;;;;;;;21.38;61.41;94239.47;4209413;28;20465;-58
2023/06/10 07:35:42;;;;;;;8.75;6.80;;;;;;;21.49;61.44;94248.50;4208398;28;20477;-60
2023/06/10 07:37:44;;;;;;;;;;;;;;;21.45;60.18;94245.50;4209536;28;20136;-58
2023/06/10 07:39:46;;;;;;;8.10;6.20;;;;;;;21.34;58.32;94246.31;4209307;28;19924;-58
2023/06/10 07:41:49;;;;;;;9.15;6.07;;;;;;;21.32;58.50;94247.63;4209471;28;20075;-61
2023/06/10 07:43:54;;;;;;;8.35;5.15;;;;;;;21.46;58.62;94238.31;4209185;28;20066;-61
2023/06/10 07:45:56;;;;;;;7.30;4.28;;;;;;;21.32;57.58;94239.63;4215747;28;20047;-60
2023/06/10 07:47:58;;;;;;;7.10;5.00;;;;;;;21.24;58.24;94241.59;4211466;28;20481;-59
2023/06/10 07:50:00;;;;;;;7.32;4.65;;;;;;;21.26;57.77;94249.34;4208541;28;20067;-59
2023/06/10 07:52:01;;;;;;;7.18;5.03;;;;;;;21.35;58.81;94236.47;4217618;28;20139;-57
2023/06/10 07:54:03;;;;;;;9.15;4.82;;;;;;;21.05;60.96;94243.59;4219097;28;20050;-59
2023/06/10 07:56:05;;;;;;;6.53;4.93;;;;;;;21.30;59.78;94244.38;4218229;28;20493;-60
2023/06/10 07:58:06;;;;;;;6.82;4.80;;;;;;;21.59;59.44;94237.22;4212160;28;20058;-60
2023/06/10 08:00:09;;;;;;;8.43;4.78;;;;;;;21.93;58.53;94237.28;4208770;28;20144;-61
2023/06/10 08:02:10;;;;;;;8.88;4.57;;;;;;;22.26;56.55;94232.00;4212900;28;20081;-61
2023/06/10 08:04:12;;;;;;;10.20;4.40;;;;;;;22.55;55.48;94239.09;4212096;28;20519;-60
2023/06/10 08:06:14;;;;;;;8.00;4.40;;;;;;;22.64;55.67;94237.63;4213258;28;20075;-58
2023/06/10 08:08:16;;;;;;;8.32;4.30;;;;;;;22.24;53.99;94236.78;4217994;28;20048;-58
2023/06/10 08:10:18;;;;;;;6.03;3.88;;;;;;;22.09;53.05;94229.28;4210311;28;20055;-58
2023/06/10 08:12:20;;;;;;;6.22;4.30;;;;;;;21.54;54.11;94234.47;4212293;28;20074;-61
2023/06/10 08:14:21;;;;;;;5.25;4.03;;;;;;;21.95;52.95;94229.84;4213000;28;20043;-59
2023/06/10 08:16:23;;;;;;;6.20;4.13;;;;;;;22.40;52.34;94226.31;4207699;28;20054;-62
2023/06/10 08:18:25;;;;;;;6.53;3.75;;;;;;;22.54;51.26;94222.25;4213253;28;20048;-60
2023/06/10 08:20:27;;;;;;;6.00;4.25;;;;;;;22.58;51.92;94223.38;4213775;28;20059;-63
2023/06/10 08:22:29;;;;;;;8.85;4.95;;;;;;;22.75;52.10;94223.34;4215136;28;20079;-60
2023/06/10 08:24:31;;;;;;;7.88;5.60;;;;;;;22.87;52.26;94218.72;4212897;28;20074;-58
2023/06/10 08:26:32;;;;;;;10.20;5.88;;;;;;;23.03;52.41;94214.41;4214522;28;20052;-60
2023/06/10 08:28:35;;;;;;;7.40;4.57;;;;;;;23.22;51.52;94216.75;4211959;28;20054;-60
2023/06/10 08:30:36;;;;;;;8.82;5.10;;;;;;;23.47;51.53;94203.69;4214623;28;20052;-61
2023/06/10 08:32:38;;;;;;;11.18;6.68;;;;;;;23.68;51.21;94203.88;4214692;28;20406;-62
2023/06/10 08:34:40;;;;;;;8.15;5.45;;;;;;;23.73;49.86;94203.94;4210551;28;20075;-59
2023/06/10 08:36:43;;;;;;;7.22;4.40;;;;;;;23.38;50.43;94202.53;4212607;28;20063;-59
2023/06/10 08:38:45;;;;;;;6.00;4.43;;;;;;;23.09;50.71;94208.06;4212815;28;20497;-59
2023/06/10 08:40:46;;;;;;;6.78;4.05;;;;;;;23.21;50.87;94199.94;4212304;28;20109;-58
2023/06/10 08:42:51;;;;;;;7.90;4.30;;;;;;;23.31;50.33;94199.22;4212875;28;20221;-60
2023/06/10 08:44:55;;;;;;;8.30;4.07;;;;;;;23.27;49.55;94201.59;4212495;28;20503;-60
2023/06/10 08:47:00;;;;;;;6.75;4.75;;;;;;;23.13;51.15;94199.56;4214927;28;20046;-57
2023/06/10 08:49:05;;;;;;;6.60;4.63;;;;;;;23.44;50.21;94196.16;4228127;28;20829;-60
2023/06/10 08:51:09;;;;;;;6.50;4.43;;;;;;;23.24;49.05;94194.06;4218291;28;20579;-59
2023/06/10 08:53:16;;;;;;;8.80;4.35;;;;;;;23.27;49.04;94187.41;4212279;28;20285;-60
2023/06/10 08:55:22;;;;;;;5.55;3.90;;;;;;;23.26;48.61;94183.16;4211711;28;20040;-57
2023/06/10 08:57:25;;;;;;;5.82;4.30;;;;;;;23.31;48.92;94181.31;4211494;28;20048;-60
2023/06/10 08:59:27;;;;;;;7.85;4.30;;;;;;;23.26;49.00;94183.16;4210552;28;20144;-61
2023/06/10 09:01:29;;;;;;;6.95;4.05;;;;;;;23.15;49.86;94178.75;4211709;28;20391;-60
2023/06/10 09:03:31;;;;;;;8.90;4.50;;;;;;;23.17;49.66;94179.31;4210462;28;20113;-59
2023/06/10 09:05:33;;;;;;;8.05;4.70;;;;;;;23.10;49.75;94182.16;4210172;28;20044;-58
2023/06/10 09:07:36;;;;;;;7.90;4.90;;;;;;;23.08;50.42;94189.59;4211550;28;20504;-60
2023/06/10 09:09:38;;;;;;;5.50;4.65;;;;;;;23.31;49.68;94181.31;4213224;28;20075;-60
2023/06/10 09:11:43;;;;;;;8.80;4.85;;;;;;;23.28;50.06;94173.81;4211505;28;20135;-60
2023/06/10 09:13:45;;;;;;;9.30;4.75;;;;;;;23.33;49.27;94180.28;4207994;28;20618;-59
2023/06/10 09:15:48;;;;;;;6.78;4.60;;;;;;;23.26;50.12;94180.47;4212535;28;20044;-58
2023/06/10 09:17:51;;;;;;;6.45;4.32;;;;;;;23.01;50.08;94178.31;4212677;28;20051;-60
2023/06/10 09:19:56;;;;;;;7.40;3.92;;;;;;;22.99;50.04;94177.72;4210528;28;20052;-59
2023/06/10 09:21:59;;;;;;;9.85;4.38;;;;;;;22.99;50.27;94175.03;4202628;28;20047;-58
2023/06/10 09:24:01;;;;;;;7.68;4.20;;;;;;;23.14;50.47;94171.78;4212055;28;20048;-58
2023/06/10 09:26:08;;;;;;;5.80;4.72;;;;;;;23.26;49.85;94170.59;4210429;28;20047;-60
2023/06/10 09:28:15;;;;;;;6.57;4.28;;;;;;;23.41;49.87;94172.63;4212315;28;20089;-58
2023/06/10 09:30:33;;;;;;;8.52;4.07;;;;;;;23.13;48.64;94167.50;4211897;28;20052;-60
2023/06/10 09:32:38;;;;;;;7.38;3.95;;;;;;;23.43;48.67;94172.38;4212460;28;20147;-58
2023/06/10 09:34:41;;;;;;;7.07;3.92;;;;;;;23.60;48.99;94167.72;4208658;28;20332;-60
2023/06/10 09:36:43;;;;;;;5.23;4.07;;;;;;;23.75;47.72;94166.22;4213197;28;20439;-60
2023/06/10 09:38:45;;;;;;;5.35;3.72;;;;;;;23.82;47.51;94156.19;4210278;28;20277;-61
2023/06/10 09:40:51;;;;;;;7.35;3.92;;;;;;;23.86;47.19;94162.63;4209863;28;20050;-61
2023/06/10 09:42:58;;;;;;;7.53;4.07;;;;;;;23.49;47.98;94163.34;4212097;28;20569;-58
2023/06/10 09:45:01;;;;;;;5.05;3.67;;;;;;;23.10;48.64;94156.25;4211427;28;20658;-63
2023/06/10 09:47:03;;;;;;;6.60;3.95;;;;;;;23.17;49.17;94155.25;4212929;28;20067;-59
2023/06/10 09:49:04;;;;;;;5.70;3.80;;;;;;;23.40;49.05;94151.47;4202431;28;20075;-59
2023/06/10 09:51:09;;;;;;;6.70;4.30;;;;;;;23.85;48.06;94153.00;4212339;28;20067;-54
2023/06/10 09:53:11;;;;;;;8.15;4.40;;;;;;;24.24;47.25;94155.41;4212237;28;20105;-59
2023/06/10 09:55:13;;;;;;;5.57;3.40;;;;;;;24.38;46.98;94143.22;4212373;28;20044;-60
2023/06/10 09:57:16;;;;;;;8.35;4.10;;;;;;;24.50;46.86;94149.22;4213141;28;20100;-60
2023/06/10 09:59:32;;;;;;;5.03;4.18;;;;;;;24.74;46.87;94143.44;4209727;28;20044;-59
2023/06/10 10:01:34;;;;;;;11.55;4.22;;;;;;;24.64;45.45;94149.53;4240249;27;20501;-62
2023/06/10 10:03:51;;;;;;;7.23;4.40;;;;;;;24.27;45.45;94146.88;4211440;28;20079;-59
2023/06/10 10:06:00;;;;;;;9.15;4.53;;;;;;;24.10;45.86;94139.00;4212283;28;20071;-60
2023/06/10 10:08:02;;;;;;;6.85;4.50;;;;;;;24.21;46.77;94143.38;4211967;28;20086;-57
2023/06/10 10:10:05;;;;;;;7.53;4.50;;;;;;;24.22;46.77;94138.81;4224125;28;20064;-59
2023/06/10 10:12:11;;;;;;;14.80;7.47;;;;;;;23.92;46.71;94129.53;4214570;28;20381;-59
2023/06/10 10:14:13;;;;;;;9.98;5.68;;;;;;;23.80;46.81;94131.56;4210077;28;20371;-58
2023/06/10 10:16:18;;;;;;;4.82;3.90;;;;;;;23.56;47.12;94131.06;4210655;28;20054;-61
2023/06/10 10:18:24;;;;;;;7.85;4.03;;;;;;;23.42;47.25;94130.66;4212138;28;20052;-59
2023/06/10 10:20:29;;;;;;;9.95;4.40;;;;;;;23.64;47.62;94128.72;4211114;28;20536;-59
2023/06/10 10:22:43;;;;;;;9.65;5.20;;;;;;;23.72;46.43;94130.13;4210618;28;20048;-57
2023/06/10 10:24:56;;;;;;;5.25;3.95;;;;;;;24.02;46.45;94129.56;4212962;28;20115;-58
2023/06/10 10:27:01;;;;;;;4.18;3.38;;;;;;;24.32;46.07;94123.63;4211212;28;20089;-58
2023/06/10 10:29:18;;;;;;;4.88;3.30;;;;;;;24.74;45.89;94116.66;4210987;28;20048;-58
2023/06/10 10:31:21;;;;;;;6.20;3.42;;;;;;;24.96;44.62;94123.69;4211755;28;20054;-60
2023/06/10 10:33:31;;;;;;;5.00;3.53;;;;;;;25.21;43.93;94115.78;4212617;28;20067;-61
2023/06/10 10:35:34;;;;;;;7.18;3.72;;;;;;;25.23;43.71;94115.47;4210380;28;20050;-60
2023/06/10 10:37:36;;;;;;;6.72;3.40;;;;;;;25.33;43.99;94110.16;4208264;28;20062;-58
2023/06/10 10:39:38;;;;;;;4.75;2.90;;;;;;;25.26;42.31;94113.09;4211132;28;20039;-58
2023/06/10 10:41:40;;;;;;;8.23;3.10;;;;;;;25.41;42.53;94109.63;4211189;28;20148;-60
2023/06/10 10:43:43;;;;;;;4.40;3.30;;;;;;;25.77;42.94;94108.84;4210715;28;20148;-59
2023/06/10 10:46:08;;;;;;;;;;;;;;;26.11;42.05;94109.13;4217774;28;20044;-59
2023/06/10 10:48:12;;;;;;;4.25;2.83;;;;;;;26.04;40.06;94101.34;4210876;28;19926;-59
2023/06/10 10:50:18;;;;;;;4.25;2.70;;;;;;;26.35;40.12;94091.38;4214039;28;20051;-57
2023/06/10 10:52:20;;;;;;;3.85;2.97;;;;;;;26.60;39.87;94086.22;4211519;28;20467;-59
2023/06/10 10:54:43;;;;;;;5.75;3.53;;;;;;;25.74;41.64;94089.53;4210604;28;20047;-59
2023/06/10 10:57:11;;;;;;;4.85;3.40;;;;;;;25.44;42.21;94094.88;4210680;28;20052;-59
2023/06/10 10:59:14;;;;;;;6.20;3.70;;;;;;;25.19;42.62;94088.41;4206280;28;20051;-58
2023/06/10 11:01:15;;;;;;;4.82;3.35;;;;;;;24.94;43.21;94092.59;4219452;28;20047;-61
2023/06/10 11:03:17;;;;;;;5.63;3.17;;;;;;;25.04;43.32;94091.03;4217500;28;20185;-60
2023/06/10 11:05:41;;;;;;;5.88;3.47;;;;;;;25.15;43.20;94081.94;4204934;28;20071;-60
2023/06/10 11:07:56;;;;;;;5.55;3.20;;;;;;;25.26;43.30;94083.59;4211572;28;20409;-60
2023/06/10 11:09:59;;;;;;;4.07;2.95;;;;;;;25.33;43.43;94080.66;4216579;28;20629;-58
2023/06/10 11:12:01;;;;;;;8.90;3.70;;;;;;;25.38;43.51;94079.84;4208240;28;20055;-60
2023/06/10 11:14:06;;;;;;;5.70;3.70;;;;;;;25.23;42.53;94075.28;4210484;28;20060;-59
2023/06/10 11:16:09;;;;;;;8.25;3.33;;;;;;;25.17;42.69;94076.31;4210792;28;20126;-58
2023/06/10 11:18:23;;;;;;;6.28;3.25;;;;;;;25.43;42.81;94071.84;4209874;28;20591;-57
2023/06/10 11:20:50;;;;;;;4.60;3.30;;;;;;;25.42;41.48;94067.53;4199740;28;20498;-60
2023/06/10 11:23:02;;;;;;;4.65;3.13;;;;;;;25.41;40.58;94065.94;4206115;28;20544;-59
2023/06/10 11:25:13;;;;;;;4.53;3.50;;;;;;;24.92;41.62;94067.94;4214121;28;20479;-60
2023/06/10 11:27:17;;;;;;;3.92;3.03;;;;;;;25.22;41.21;94061.06;4212549;28;20048;-61
2023/06/10 11:29:20;;;;;;;4.40;3.17;;;;;;;25.41;40.63;94057.91;4212800;28;20048;-59
2023/06/10 11:31:29;;;;;;;5.38;2.63;;;;;;;25.36;39.94;94047.16;4213692;28;20048;-61
2023/06/10 11:33:31;;;;;;;6.75;3.33;;;;;;;25.56;40.18;94044.47;4214130;28;20052;-58
2023/06/10 11:35:33;;;;;;;4.18;3.28;;;;;;;25.68;40.36;94053.06;4212336;28;20409;-58
2023/06/10 11:37:35;;;;;;;5.25;3.17;;;;;;;25.74;41.51;94051.97;4211763;28;20121;-60
2023/06/10 11:39:36;;;;;;;5.30;3.67;;;;;;;25.59;41.71;94060.03;4213750;28;20058;-60
2023/06/10 11:41:39;;;;;;;4.53;3.80;;;;;;;25.40;41.39;94045.53;4214100;28;20044;-59
2023/06/10 11:43:43;;;;;;;6.87;3.80;;;;;;;25.24;41.93;94050.09;4213306;28;20048;-57
2023/06/10 11:45:45;;;;;;;6.75;3.95;;;;;;;25.23;42.39;94054.66;4219737;28;20204;-60
2023/06/10 11:47:59;;;;;;;6.43;3.92;;;;;;;25.15;42.01;94055.16;4230128;28;20108;-59
2023/06/10 11:50:01;;;;;;;10.05;4.13;;;;;;;25.18;42.60;94043.09;4211910;28;20127;-58
2023/06/10 11:52:04;;;;;;;6.18;4.53;;;;;;;25.02;42.45;94048.44;4213562;28;20099;-60
2023/06/10 11:54:08;;;;;;;7.38;3.65;;;;;;;24.74;42.47;94049.69;4213855;28;20147;-58
2023/06/10 11:56:10;;;;;;;10.52;5.50;;;;;;;24.85;43.30;94043.28;4213659;28;20066;-59
2023/06/10 11:58:22;;;;;;;6.28;4.47;;;;;;;25.03;43.71;94049.22;4212532;28;20125;-61
2023/06/10 12:00:24;;;;;;;6.32;4.30;;;;;;;25.27;43.51;94044.19;4212991;28;20522;-61
2023/06/10 12:02:26;;;;;;;6.18;3.97;;;;;;;25.49;43.29;94043.94;4213721;28;20052;-62
2023/06/10 12:04:28;;;;;;;10.55;4.07;;;;;;;25.70;42.74;94042.84;4210889;28;20056;-60
2023/06/10 12:06:39;;;;;;;6.32;4.15;;;;;;;25.88;42.60;94046.09;4213418;28;20407;-58
2023/06/10 12:08:42;;;;;;;7.25;3.72;;;;;;;26.00;42.67;94037.75;4223363;28;20425;-61
2023/06/10 12:10:44;;;;;;;6.35;3.72;;;;;;;25.84;41.81;94042.31;4215240;28;20058;-57
2023/06/10 12:12:46;;;;;;;7.93;3.72;;;;;;;25.85;42.10;94044.72;4221617;28;20081;-58
2023/06/10 12:14:58;;;;;;;5.68;3.95;;;;;;;25.92;43.05;94034.56;4212798;28;20048;-56
2023/06/10 12:17:00;;;;;;;5.13;3.83;;;;;;;25.99;43.41;94036.16;4213393;28;20036;-58
2023/06/10 12:19:04;;;;;;;5.43;3.85;;;;;;;25.94;42.62;94031.59;4211833;28;20113;-57
2023/06/10 12:21:23;;;;;;;5.97;3.60;;;;;;;25.78;41.07;94040.72;4213626;28;20456;-58
2023/06/10 12:23:25;;;;;;;18.58;5.57;;;;;;;25.74;42.25;94037.75;4212334;28;20516;-59
2023/06/10 12:25:28;;;;;;;6.88;3.60;;;;;;;25.75;39.93;94034.03;4213779;28;20165;-58
2023/06/10 12:27:31;;;;;;;5.07;3.60;;;;;;;25.54;39.28;94034.03;4215670;28;20056;-59
2023/06/10 12:29:33;;;;;;;7.22;4.05;;;;;;;25.47;39.90;94035.38;4214805;28;20052;-58
2023/06/10 12:32:12;;;;;;;18.60;5.93;;;;;;;25.53;41.70;94028.91;4213018;28;20580;-59
2023/06/10 12:34:15;;;;;;;7.93;3.80;;;;;;;25.66;41.57;94023.03;4211717;28;20083;-62
2023/06/10 12:36:17;;;;;;;11.75;5.13;;;;;;;25.79;41.34;94018.16;4212290;28;20055;-58
2023/06/10 12:38:31;;;;;;;6.20;3.83;;;;;;;25.80;41.33;94017.91;4213022;28;20044;-59
2023/06/10 12:40:34;;;;;;;5.13;3.22;;;;;;;25.78;40.14;94013.88;4211371;28;20071;-59
2023/06/10 12:42:37;;;;;;;5.38;3.38;;;;;;;25.77;39.83;94017.63;4213331;28;20123;-60
2023/06/10 12:44:40;;;;;;;15.70;3.90;;;;;;;25.63;39.21;94012.81;4212425;28;20569;-60
2023/06/10 12:46:42;;;;;;;11.80;3.30;;;;;;;25.36;36.94;94018.47;4212308;28;20153;-58
2023/06/10 12:48:54;;;;;;;4.32;2.97;;;;;;;25.01;35.47;94009.28;4211459;28;20127;-58
2023/06/10 12:50:58;;;;;;;4.90;3.70;;;;;;;24.66;35.60;94018.06;4212878;28;20060;-58
2023/06/10 12:53:00;;;;;;;6.28;3.75;;;;;;;24.65;36.08;94014.59;4212760;28;20056;-60
2023/06/10 12:55:03;;;;;;;4.50;3.40;;;;;;;24.67;36.58;94019.66;4212191;28;20048;-60
2023/06/10 12:57:06;;;;;;;4.95;3.33;;;;;;;24.63;36.08;94021.25;4212388;28;20150;-59
2023/06/10 12:59:07;;;;;;;5.03;3.60;;;;;;;24.70;36.22;94025.28;4203162;28;20055;-60